Time;durP1;ratioP1;P1;durP2;ratioP2;P2;SDS_P1;SDS_P2;PMS_P1;PMS_P2;Temp;Humidity;BMP_temperature;BMP_pressure;BME280_temperature;BME280_humidity;BME280_pressure;Samples;Min_cycle;Max_cycle;Signal;HPM_P1;HPM_P2
2023/04/11 00:00:50;;;;;;;0.15;0.10;;;;;;;21.83;35.79;99842.91;4534138;28;20493;-59
2023/04/11 00:03:01;;;;;;;0.10;0.10;;;;;;;21.80;35.90;99831.38;4534586;28;20032;-59
2023/04/11 00:05:11;;;;;;;0.10;0.10;;;;;;;21.79;35.54;99841.19;4533005;28;20029;-58
2023/04/11 00:07:22;;;;;;;0.10;0.10;;;;;;;21.83;34.98;99854.41;4533742;28;20029;-59
2023/04/11 00:09:33;;;;;;;0.15;0.10;;;;;;;21.81;35.38;99853.94;4534272;28;20048;-59
2023/04/11 00:11:43;;;;;;;1.42;0.13;;;;;;;21.84;35.34;99858.06;4531494;28;20037;-60
2023/04/11 00:13:57;;;;;;;0.20;0.20;;;;;;;21.84;35.66;99858.06;4531977;28;20355;-59
2023/04/11 00:16:08;;;;;;;0.52;0.20;;;;;;;21.84;35.00;99858.91;4516609;28;20038;-60
2023/04/11 00:18:19;;;;;;;0.25;0.13;;;;;;;21.83;34.97;99865.88;4531085;28;20099;-59
2023/04/11 00:20:29;;;;;;;0.25;0.20;;;;;;;21.82;35.08;99864.22;4532373;28;20523;-59
2023/04/11 00:22:40;;;;;;;0.13;0.10;;;;;;;21.79;35.15;99856.38;4533678;28;20040;-59
2023/04/11 00:24:51;;;;;;;0.10;0.10;;;;;;;21.71;35.11;99839.41;4533232;28;20037;-61
2023/04/11 00:27:02;;;;;;;0.10;0.10;;;;;;;21.77;34.68;99846.53;4533409;28;20040;-60
2023/04/11 00:29:12;;;;;;;0.10;0.10;;;;;;;21.80;34.71;99855.16;4534159;28;20302;-59
2023/04/11 00:31:23;;;;;;;0.20;0.10;;;;;;;21.78;34.52;99853.91;4532803;28;20041;-60
2023/04/11 00:33:33;;;;;;;0.32;0.17;;;;;;;21.80;34.39;99851.47;4538349;28;20750;-60
2023/04/11 00:35:44;;;;;;;0.10;0.10;;;;;;;21.78;34.51;99849.00;4535175;28;20338;-59
2023/04/11 00:37:55;;;;;;;0.52;0.20;;;;;;;21.78;34.23;99843.25;4534578;28;20025;-59
2023/04/11 00:40:06;;;;;;;0.15;0.15;;;;;;;21.79;34.04;99836.28;4532087;28;20048;-59
2023/04/11 00:42:17;;;;;;;0.20;0.10;;;;;;;21.78;34.21;99834.63;4532428;28;20642;-59
2023/04/11 00:44:28;;;;;;;0.28;0.13;;;;;;;21.76;34.04;99837.06;4533135;28;20061;-59
2023/04/11 00:46:42;;;;;;;0.10;0.10;;;;;;;21.79;33.91;99842.03;4532119;28;20869;-60
2023/04/11 00:48:52;;;;;;;0.20;0.10;;;;;;;21.79;33.51;99853.50;4530988;28;20474;-60
2023/04/11 00:51:03;;;;;;;0.10;0.10;;;;;;;21.75;33.28;99848.91;4524235;28;20037;-59
2023/04/11 00:53:13;;;;;;;0.20;0.10;;;;;;;21.78;33.54;99851.88;4530655;28;20588;-60
2023/04/11 00:55:25;;;;;;;0.20;0.10;;;;;;;21.78;33.30;99845.28;4533229;28;20025;-59
2023/04/11 00:57:35;;;;;;;0.20;0.10;;;;;;;21.77;33.66;99841.56;4518967;28;20037;-59
2023/04/11 00:59:47;;;;;;;0.10;0.10;;;;;;;21.71;33.64;99834.50;4531551;28;20032;-59
2023/04/11 01:01:59;;;;;;;0.15;0.15;;;;;;;21.77;33.57;99847.31;4520321;28;20049;-60
2023/04/11 01:04:10;;;;;;;0.10;0.10;;;;;;;21.77;33.54;99844.44;4531603;28;20810;-61
2023/04/11 01:06:22;;;;;;;0.10;0.10;;;;;;;21.77;33.48;99844.44;4523853;28;20029;-59
2023/04/11 01:08:37;;;;;;;0.10;0.10;;;;;;;21.77;33.51;99837.91;4513915;28;20626;-58
2023/04/11 01:10:48;;;;;;;0.28;0.20;;;;;;;21.77;33.75;99849.41;4531634;28;20043;-59
2023/04/11 01:13:00;;;;;;;0.10;0.10;;;;;;;21.76;33.43;99837.06;4530577;28;20048;-59
2023/04/11 01:15:10;;;;;;;0.60;0.20;;;;;;;21.76;33.48;99839.94;4533114;28;20044;-59
2023/04/11 01:17:21;;;;;;;0.22;0.20;;;;;;;21.76;33.58;99837.06;4531354;28;20032;-59
2023/04/11 01:19:32;;;;;;;0.43;0.20;;;;;;;21.75;33.94;99831.69;4522949;28;20075;-59
2023/04/11 01:21:43;;;;;;;0.10;0.10;;;;;;;21.74;34.00;99830.84;4533531;28;20044;-59
2023/04/11 01:23:55;;;;;;;0.20;0.10;;;;;;;21.69;33.72;99804.53;4516262;28;20038;-58
2023/04/11 01:26:06;;;;;;;0.30;0.20;;;;;;;21.70;34.02;99809.06;4516458;28;20665;-59
2023/04/11 01:28:20;;;;;;;0.20;0.20;;;;;;;21.74;33.75;99819.34;4515732;28;20087;-59
2023/04/11 01:30:31;;;;;;;0.20;0.20;;;;;;;21.73;33.99;99793.91;4515000;28;20529;-59
2023/04/11 01:32:41;;;;;;;0.25;0.20;;;;;;;21.69;34.13;99802.47;4533854;28;20091;-59
2023/04/11 01:34:55;;;;;;;0.10;0.10;;;;;;;21.71;34.11;99805.78;4532569;28;20063;-59
2023/04/11 01:37:06;;;;;;;0.25;0.20;;;;;;;21.73;33.99;99814.00;4518839;28;20076;-60
2023/04/11 01:39:16;;;;;;;0.35;0.20;;;;;;;21.73;34.38;99811.13;4532618;28;20108;-59
2023/04/11 01:41:29;;;;;;;0.20;0.20;;;;;;;21.67;34.13;99810.69;4530512;28;20052;-59
2023/04/11 01:43:40;;;;;;;0.20;0.20;;;;;;;21.67;34.27;99816.44;4531610;28;20032;-59
2023/04/11 01:45:51;;;;;;;0.20;0.20;;;;;;;21.73;34.02;99820.59;4531471;28;20056;-60
2023/04/11 01:48:06;;;;;;;0.30;0.20;;;;;;;21.67;33.98;99812.72;4527937;28;20103;-59
2023/04/11 01:50:16;;;;;;;0.57;0.40;;;;;;;21.69;34.55;99810.28;4521050;28;21282;-59
2023/04/11 01:52:27;;;;;;;0.32;0.22;;;;;;;21.56;34.55;99801.13;4530511;28;20119;-59
2023/04/11 01:54:37;;;;;;;0.30;0.30;;;;;;;21.67;34.57;99813.56;4530344;28;20052;-59
2023/04/11 01:56:49;;;;;;;0.40;0.20;;;;;;;21.69;34.25;99813.97;4527406;28;20068;-59
2023/04/11 01:59:00;;;;;;;0.30;0.13;;;;;;;21.69;34.27;99805.34;4531709;28;20032;-60
2023/04/11 02:01:12;;;;;;;0.20;0.20;;;;;;;21.70;34.56;99804.16;4515710;28;20103;-59
2023/04/11 02:03:22;;;;;;;0.38;0.20;;;;;;;21.70;34.30;99791.81;4530504;28;20214;-59
2023/04/11 02:05:32;;;;;;;0.20;0.20;;;;;;;21.70;34.37;99792.66;4530298;28;20021;-60
2023/04/11 02:07:43;;;;;;;0.25;0.25;;;;;;;21.70;34.51;99778.31;4510132;28;20069;-59
2023/04/11 02:09:56;;;;;;;0.40;0.40;;;;;;;21.70;34.42;99780.34;4532417;28;20582;-60
2023/04/11 02:12:06;;;;;;;0.70;0.28;;;;;;;21.66;34.33;99771.69;4515382;28;20575;-59
2023/04/11 02:14:19;;;;;;;0.47;0.40;;;;;;;21.67;34.27;99776.22;4531436;28;20854;-60
2023/04/11 02:16:29;;;;;;;0.80;0.30;;;;;;;21.66;34.74;99765.94;4529963;28;20076;-59
2023/04/11 02:18:41;;;;;;;0.35;0.30;;;;;;;21.66;34.23;99768.81;4531670;28;20074;-60
2023/04/11 02:20:52;;;;;;;0.40;0.30;;;;;;;21.67;34.28;99776.22;4531844;28;20037;-60
2023/04/11 02:23:03;;;;;;;0.40;0.22;;;;;;;21.67;34.23;99770.47;4528169;28;20033;-59
2023/04/11 02:25:13;;;;;;;0.70;0.40;;;;;;;21.66;34.45;99777.41;4532519;28;20835;-60
2023/04/11 02:27:24;;;;;;;0.45;0.30;;;;;;;21.66;34.38;99774.53;4530730;28;20394;-60
2023/04/11 02:29:38;;;;;;;0.65;0.30;;;;;;;21.67;34.38;99781.97;4531624;28;20143;-59
2023/04/11 02:31:48;;;;;;;0.25;0.20;;;;;;;21.64;34.28;99771.25;4515642;28;20045;-59
2023/04/11 02:34:01;;;;;;;1.30;0.40;;;;;;;21.65;34.13;99778.66;4533412;28;20571;-60
2023/04/11 02:36:11;;;;;;;0.60;0.40;;;;;;;21.67;34.26;99779.09;4532465;28;20152;-60
2023/04/11 02:38:22;;;;;;;0.17;0.17;;;;;;;21.65;34.39;99778.66;4531018;28;20022;-60
2023/04/11 02:40:32;;;;;;;1.08;0.40;;;;;;;21.64;34.48;99782.75;4531666;28;20029;-59
2023/04/11 02:42:44;;;;;;;0.45;0.30;;;;;;;21.62;34.47;99782.31;4531507;28;20095;-59
2023/04/11 02:44:54;;;;;;;0.47;0.30;;;;;;;21.64;34.23;99787.66;4512970;28;20568;-59
2023/04/11 02:47:06;;;;;;;0.43;0.40;;;;;;;21.64;33.97;99797.13;4530056;28;20030;-59
2023/04/11 02:49:19;;;;;;;1.02;0.50;;;;;;;21.64;34.29;99788.50;4532764;28;20092;-60
2023/04/11 02:51:32;;;;;;;0.75;0.40;;;;;;;21.64;34.42;99802.84;4529549;28;20290;-59
2023/04/11 02:53:42;;;;;;;0.55;0.40;;;;;;;21.63;33.84;99804.06;4514152;28;20079;-61
2023/04/11 02:55:53;;;;;;;1.15;0.50;;;;;;;21.64;34.11;99811.47;4531776;28;20037;-59
2023/04/11 02:58:04;;;;;;;0.63;0.40;;;;;;;21.63;33.89;99804.06;4530082;28;20153;-60
2023/04/11 03:00:15;;;;;;;0.68;0.40;;;;;;;21.60;34.19;99799.09;4532464;28;20040;-60
2023/04/11 03:02:33;;;;;;;1.13;0.60;;;;;;;21.62;33.93;99802.41;4516133;28;20038;-59
2023/04/11 03:04:45;;;;;;;0.50;0.40;;;;;;;21.63;33.85;99806.94;4530317;28;20069;-59
2023/04/11 03:06:59;;;;;;;0.93;0.60;;;;;;;21.63;34.29;99804.06;4530169;28;20801;-59
2023/04/11 03:09:10;;;;;;;0.60;0.50;;;;;;;21.61;34.37;99805.69;4535342;28;20037;-59
2023/04/11 03:11:21;;;;;;;0.40;0.40;;;;;;;21.60;34.06;99810.59;4517570;28;20041;-60
2023/04/11 03:13:32;;;;;;;1.17;0.90;;;;;;;21.58;34.19;99801.53;4531692;28;20083;-59
2023/04/11 03:15:43;;;;;;;1.80;0.90;;;;;;;21.60;33.90;99816.34;4535916;28;20074;-59
2023/04/11 03:17:55;;;;;;;0.68;0.50;;;;;;;21.60;34.01;99818.38;4532491;28;20045;-59
2023/04/11 03:20:08;;;;;;;1.10;0.68;;;;;;;21.61;34.50;99815.09;4533937;28;20029;-61
2023/04/11 03:22:18;;;;;;;1.48;0.52;;;;;;;21.58;34.16;99812.22;4517712;28;20040;-59
2023/04/11 03:24:31;;;;;;;0.60;0.50;;;;;;;21.57;34.53;99811.38;4504580;28;20193;-59
2023/04/11 03:26:43;;;;;;;0.85;0.65;;;;;;;21.61;34.50;99829.47;4532450;28;20034;-59
2023/04/11 03:28:57;;;;;;;0.70;0.50;;;;;;;21.60;34.47;99822.06;4534036;28;20036;-59
2023/04/11 03:31:08;;;;;;;1.05;0.50;;;;;;;21.61;34.45;99828.66;4515728;28;20034;-59
2023/04/11 03:33:19;;;;;;;1.00;0.63;;;;;;;21.57;34.49;99820.00;4526264;28;20308;-59
2023/04/11 03:35:29;;;;;;;0.88;0.60;;;;;;;21.58;34.17;99823.69;4522050;28;20695;-59
2023/04/11 03:37:40;;;;;;;1.30;0.65;;;;;;;21.58;34.47;99821.63;4534929;28;20756;-59
2023/04/11 03:39:50;;;;;;;1.10;0.60;;;;;;;21.60;34.52;99833.56;4533308;28;20630;-59
2023/04/11 03:42:01;;;;;;;1.10;0.60;;;;;;;21.55;34.01;99821.63;4523856;28;20136;-59
2023/04/11 03:44:12;;;;;;;1.60;0.65;;;;;;;21.59;34.29;99820.44;4523424;28;20049;-60
2023/04/11 03:46:23;;;;;;;0.57;0.50;;;;;;;21.58;33.97;99835.19;4533899;28;20881;-58
2023/04/11 03:48:33;;;;;;;1.60;0.77;;;;;;;21.54;34.29;99831.44;4524380;28;20042;-62
2023/04/11 03:50:49;;;;;;;1.10;0.60;;;;;;;21.51;34.06;99829.34;4535146;28;20033;-61
2023/04/11 03:53:03;;;;;;;1.67;0.80;;;;;;;21.56;33.86;99844.19;4533266;28;20847;-60
2023/04/11 03:55:14;;;;;;;0.82;0.50;;;;;;;21.58;33.95;99841.75;4533667;28;20040;-59
2023/04/11 03:57:26;;;;;;;1.02;0.60;;;;;;;21.56;33.89;99838.44;4517107;28;20062;-60
2023/04/11 03:59:37;;;;;;;1.23;0.73;;;;;;;21.52;34.25;99831.81;4517581;28;20029;-61
2023/04/11 04:01:53;;;;;;;1.88;0.70;;;;;;;21.54;34.34;99835.13;4517130;28;20798;-60
2023/04/11 04:04:05;;;;;;;0.90;0.70;;;;;;;21.50;34.13;99825.63;4534624;28;20410;-60
2023/04/11 04:06:20;;;;;;;1.60;0.70;;;;;;;21.55;34.13;99835.97;4534584;28;20226;-60
2023/04/11 04:08:31;;;;;;;1.13;0.63;;;;;;;21.55;34.44;99842.53;4526357;28;20040;-63
2023/04/11 04:10:42;;;;;;;1.25;0.90;;;;;;;21.54;34.24;99840.03;4534770;28;20432;-59
2023/04/11 04:12:53;;;;;;;1.40;0.82;;;;;;;21.55;34.53;99836.78;4534040;28;20044;-60
2023/04/11 04:15:07;;;;;;;1.58;0.80;;;;;;;21.54;34.53;99840.88;4532626;28;20654;-60
2023/04/11 04:17:18;;;;;;;1.63;0.90;;;;;;;21.44;34.27;99824.34;4524604;28;20580;-62
2023/04/11 04:19:29;;;;;;;1.17;0.70;;;;;;;21.54;34.29;99846.63;4515265;28;20040;-60
2023/04/11 04:21:40;;;;;;;3.15;0.90;;;;;;;21.49;34.08;99835.47;4534255;28;20029;-59
2023/04/11 04:23:52;;;;;;;0.88;0.75;;;;;;;21.54;34.28;99849.50;4523602;28;20022;-60
2023/04/11 04:26:36;;;;;;;1.33;0.75;;;;;;;21.51;34.47;99853.16;4533846;28;20029;-59
2023/04/11 04:29:16;;;;;;;1.52;0.88;;;;;;;21.51;34.34;99846.56;4517134;28;20142;-60
2023/04/11 04:31:35;;;;;;;1.30;0.80;;;;;;;21.48;33.71;99842.47;4535280;28;20036;-60
2023/04/11 04:33:49;;;;;;;2.05;1.00;;;;;;;21.53;34.15;99865.06;4516051;28;20504;-60
2023/04/11 04:36:08;;;;;;;1.30;0.90;;;;;;;21.52;33.67;99865.44;4517865;28;20045;-60
2023/04/11 04:38:19;;;;;;;1.50;0.80;;;;;;;21.53;33.63;99861.38;4534302;28;20493;-59
2023/04/11 04:40:36;;;;;;;2.20;1.20;;;;;;;21.45;33.82;99863.34;4532404;28;20128;-59
2023/04/11 04:42:56;;;;;;;1.63;1.08;;;;;;;21.51;34.17;99869.53;4517142;28;20662;-59
2023/04/11 04:45:09;;;;;;;1.38;0.93;;;;;;;21.52;34.11;99876.94;4515821;28;20108;-59
2023/04/11 04:47:27;;;;;;;0.98;0.88;;;;;;;21.53;33.97;99878.59;4501534;28;20038;-60
2023/04/11 04:49:38;;;;;;;2.30;1.08;;;;;;;21.50;34.46;99880.19;4534840;28;20028;-58
2023/04/11 04:51:48;;;;;;;1.75;1.00;;;;;;;21.50;34.19;99885.94;4533661;28;20532;-58
2023/04/11 04:53:59;;;;;;;1.67;0.90;;;;;;;21.49;34.27;99874.84;4521506;28;20036;-59
2023/04/11 04:56:10;;;;;;;1.38;0.60;;;;;;;21.46;34.08;99867.84;4528938;28;20048;-59
2023/04/11 04:58:24;;;;;;;1.15;0.80;;;;;;;21.48;33.37;99867.47;4523469;28;20026;-59
2023/04/11 05:00:35;;;;;;;1.52;0.90;;;;;;;21.46;33.61;99870.72;4516443;28;20495;-58
2023/04/11 05:02:48;;;;;;;1.90;0.90;;;;;;;21.48;33.73;99876.91;4529749;28;20693;-58
2023/04/11 05:05:02;;;;;;;1.60;0.82;;;;;;;21.45;34.24;99869.09;4521476;28;20147;-59
2023/04/11 05:07:13;;;;;;;1.55;0.90;;;;;;;21.44;33.90;99875.19;4531343;28;20760;-58
2023/04/11 05:09:24;;;;;;;2.38;1.30;;;;;;;21.50;33.91;99877.31;4530896;28;20091;-58
2023/04/11 05:11:37;;;;;;;2.38;1.33;;;;;;;21.39;34.28;99862.00;4514451;28;20164;-58
2023/04/11 05:13:47;;;;;;;1.80;1.20;;;;;;;21.47;33.94;99880.97;4532012;28;20480;-59
2023/04/11 05:15:59;;;;;;;1.60;1.15;;;;;;;21.49;33.64;99884.28;4515030;28;21063;-58
2023/04/11 05:18:11;;;;;;;1.50;0.90;;;;;;;21.48;33.93;99885.53;4514980;28;20096;-59
2023/04/11 05:20:23;;;;;;;1.63;0.90;;;;;;;21.51;33.90;99886.78;4530747;28;20021;-59
2023/04/11 05:22:35;;;;;;;1.63;1.08;;;;;;;21.48;33.76;99887.56;4523033;28;20033;-58
2023/04/11 05:24:45;;;;;;;1.63;0.90;;;;;;;21.48;33.71;99896.16;4510960;28;20577;-58
2023/04/11 05:26:57;;;;;;;1.88;0.90;;;;;;;21.47;34.00;99915.44;4530842;28;20128;-59
2023/04/11 05:29:07;;;;;;;1.38;0.80;;;;;;;21.51;34.13;99927.81;4531251;28;20489;-59
2023/04/11 05:31:18;;;;;;;1.48;0.80;;;;;;;21.46;34.44;99930.19;4505017;28;20096;-59
2023/04/11 05:33:29;;;;;;;1.48;0.80;;;;;;;21.30;34.47;99921.75;4533891;28;20057;-59
2023/04/11 05:35:41;;;;;;;1.00;0.60;;;;;;;21.49;33.46;99915.03;4519944;28;20033;-60
2023/04/11 05:37:51;;;;;;;0.40;0.40;;;;;;;21.45;32.76;99923.63;4521222;28;20033;-59
2023/04/11 05:40:02;;;;;;;0.70;0.40;;;;;;;21.48;32.35;99922.84;4531680;28;20112;-58
2023/04/11 05:42:16;;;;;;;1.13;0.40;;;;;;;21.47;31.70;99926.91;4515631;28;20022;-59
2023/04/11 05:44:26;;;;;;;1.17;0.40;;;;;;;21.42;31.44;99907.16;4522609;28;20545;-59
2023/04/11 05:46:37;;;;;;;0.77;0.50;;;;;;;21.46;31.17;99925.28;4530024;28;20071;-59
2023/04/11 05:48:47;;;;;;;0.43;0.40;;;;;;;21.48;31.50;99922.00;4532998;28;20041;-59
2023/04/11 05:50:58;;;;;;;0.80;0.50;;;;;;;21.44;31.56;99927.69;4521962;28;20450;-58
2023/04/11 05:53:09;;;;;;;0.90;0.60;;;;;;;21.44;31.38;99929.72;4515492;28;20033;-59
2023/04/11 05:55:19;;;;;;;0.85;0.65;;;;;;;21.46;31.77;99936.75;4530885;28;20132;-57
2023/04/11 05:57:30;;;;;;;1.08;0.60;;;;;;;21.47;31.84;99937.59;4528492;28;20040;-59
2023/04/11 05:59:43;;;;;;;1.52;0.70;;;;;;;21.31;32.41;99916.84;4512771;28;20033;-58
2023/04/11 06:01:53;;;;;;;1.23;0.70;;;;;;;21.46;32.25;99942.50;4528665;28;20136;-59
2023/04/11 06:04:04;;;;;;;0.85;0.80;;;;;;;21.46;32.61;99941.66;4528641;28;20041;-59
2023/04/11 06:06:14;;;;;;;1.58;0.80;;;;;;;21.45;32.96;99938.00;4529239;28;20072;-58
2023/04/11 06:08:25;;;;;;;1.83;0.90;;;;;;;21.43;33.29;99933.84;4529770;28;20037;-59
2023/04/11 06:10:35;;;;;;;2.15;0.95;;;;;;;21.47;33.47;99943.34;4528568;28;20122;-58
2023/04/11 06:12:46;;;;;;;1.67;1.00;;;;;;;21.46;33.77;99941.66;4528211;28;20056;-58
2023/04/11 06:14:57;;;;;;;1.33;0.95;;;;;;;21.41;34.01;99937.09;4530117;28;20106;-60
2023/04/11 06:17:08;;;;;;;1.50;0.80;;;;;;;21.46;34.00;99944.53;4531044;28;20608;-58
2023/04/11 06:19:18;;;;;;;2.47;1.13;;;;;;;21.46;33.97;99948.25;4516776;28;20042;-59
2023/04/11 06:21:30;;;;;;;1.10;0.70;;;;;;;21.43;33.76;99946.16;4530697;28;20025;-59
2023/04/11 06:23:41;;;;;;;1.92;0.90;;;;;;;21.41;34.07;99957.19;4511749;28;20045;-61
2023/04/11 06:25:51;;;;;;;2.40;1.13;;;;;;;21.35;34.25;99941.53;4529589;28;20040;-58
2023/04/11 06:28:02;;;;;;;1.42;0.90;;;;;;;21.44;34.63;99962.16;4527582;28;20143;-61
2023/04/11 06:30:13;;;;;;;2.30;1.00;;;;;;;21.45;34.38;99963.81;4512121;28;20445;-58
2023/04/11 06:32:26;;;;;;;1.75;1.05;;;;;;;21.45;34.68;99960.97;4530000;28;20160;-58
2023/04/11 06:34:40;;;;;;;1.60;0.80;;;;;;;21.45;34.45;99972.44;4521787;28;20159;-59
2023/04/11 06:36:51;;;;;;;1.80;1.00;;;;;;;21.39;34.91;99953.88;4511932;28;20022;-59
2023/04/11 06:39:03;;;;;;;1.63;0.93;;;;;;;21.43;35.10;99966.25;4529438;28;20033;-59
2023/04/11 06:41:14;;;;;;;1.83;1.00;;;;;;;21.43;34.48;99974.88;4529387;28;20107;-59
2023/04/11 06:43:24;;;;;;;1.70;1.00;;;;;;;21.44;34.43;99984.28;4529549;28;20156;-59
2023/04/11 06:45:35;;;;;;;1.85;1.00;;;;;;;21.45;34.41;99971.59;4532213;28;20040;-59
2023/04/11 06:47:45;;;;;;;1.88;1.00;;;;;;;21.44;34.63;99978.53;4532076;28;20390;-58
2023/04/11 06:49:56;;;;;;;1.80;0.85;;;;;;;21.42;33.86;99970.31;4530814;28;20040;-60
2023/04/11 06:52:06;;;;;;;1.55;0.80;;;;;;;21.42;34.16;99986.75;4534596;28;20505;-58
2023/04/11 06:54:17;;;;;;;1.15;0.80;;;;;;;21.44;33.83;99984.28;4532826;28;20044;-58
2023/04/11 06:56:28;;;;;;;1.02;0.52;;;;;;;21.42;33.68;99981.81;4532453;28;20255;-59
2023/04/11 06:58:38;;;;;;;1.35;0.60;;;;;;;21.43;33.86;99983.47;4531708;28;20476;-59
2023/04/11 07:00:50;;;;;;;1.05;0.70;;;;;;;21.44;33.82;99990.88;4515779;28;20038;-58
2023/04/11 07:03:00;;;;;;;1.70;0.70;;;;;;;21.47;33.59;99997.91;4533406;28;20033;-59
2023/04/11 07:05:11;;;;;;;0.73;0.63;;;;;;;21.44;33.62;99999.47;4536327;28;20036;-59
2023/04/11 07:07:21;;;;;;;1.27;0.90;;;;;;;21.46;33.12;100010.56;4536415;28;20601;-58
2023/04/11 07:09:32;;;;;;;2.17;0.90;;;;;;;21.42;33.16;100001.91;4531250;28;20041;-60
2023/04/11 07:11:43;;;;;;;1.42;0.80;;;;;;;21.43;33.17;100023.66;4534250;28;20102;-58
2023/04/11 07:13:54;;;;;;;1.17;0.80;;;;;;;21.44;33.43;100019.56;4531641;28;20043;-58
2023/04/11 07:16:05;;;;;;;1.52;0.80;;;;;;;21.44;33.71;100021.59;4533966;28;20041;-58
2023/04/11 07:18:16;;;;;;;1.50;0.80;;;;;;;21.44;33.23;100025.31;4533108;28;20061;-59
2023/04/11 07:20:26;;;;;;;1.08;0.60;;;;;;;21.45;33.00;100020.41;4534602;28;20099;-58
2023/04/11 07:22:41;;;;;;;2.25;0.80;;;;;;;21.45;33.44;100014.66;4518058;28;20022;-58
2023/04/11 07:24:54;;;;;;;0.73;0.70;;;;;;;21.43;33.15;100029.41;4532916;28;20090;-59
2023/04/11 07:27:05;;;;;;;1.60;0.70;;;;;;;21.41;33.02;100026.09;4536545;28;20112;-58
2023/04/11 07:29:16;;;;;;;0.88;0.60;;;;;;;21.43;32.94;100029.41;4532716;28;20105;-58
2023/04/11 07:31:26;;;;;;;1.83;0.70;;;;;;;21.43;32.36;100029.41;4534226;28;20556;-58
2023/04/11 07:33:37;;;;;;;0.80;0.40;;;;;;;21.44;32.61;100048.28;4534274;28;20048;-59
2023/04/11 07:35:47;;;;;;;0.90;0.60;;;;;;;21.43;32.47;100034.31;4534446;28;20132;-59
2023/04/11 07:37:59;;;;;;;0.82;0.70;;;;;;;21.42;32.23;100030.59;4533663;28;20123;-59
2023/04/11 07:40:12;;;;;;;1.45;0.77;;;;;;;21.43;32.29;100035.16;4537526;28;20029;-59
2023/04/11 07:42:23;;;;;;;1.98;0.85;;;;;;;21.44;32.14;100036.81;4532276;28;20049;-59
2023/04/11 07:44:33;;;;;;;1.30;0.80;;;;;;;21.44;32.42;100038.84;4521123;28;20396;-58
2023/04/11 07:46:44;;;;;;;1.17;0.68;;;;;;;21.43;32.79;100040.91;4531998;28;20556;-58
2023/04/11 07:48:54;;;;;;;1.15;0.68;;;;;;;21.45;32.93;100049.97;4532124;28;20028;-58
2023/04/11 07:51:05;;;;;;;1.42;0.80;;;;;;;21.39;33.24;100047.81;4533498;28;20075;-60
2023/04/11 07:53:15;;;;;;;1.40;0.70;;;;;;;21.41;33.14;100054.81;4533984;28;20048;-59
2023/04/11 07:55:26;;;;;;;1.02;0.77;;;;;;;21.45;33.17;100070.06;4533208;28;20032;-59
2023/04/11 07:57:36;;;;;;;1.77;0.70;;;;;;;21.40;32.94;100047.41;4533692;28;20049;-59
2023/04/11 07:59:47;;;;;;;1.00;0.80;;;;;;;21.41;33.02;100057.69;4519348;28;20473;-58
2023/04/11 08:02:01;;;;;;;1.40;0.82;;;;;;;21.45;32.70;100061.44;4533569;28;20116;-59
2023/04/11 08:04:12;;;;;;;2.08;0.80;;;;;;;21.33;32.30;100047.28;4533448;28;20044;-59
2023/04/11 08:06:22;;;;;;;1.38;0.80;;;;;;;21.41;32.65;100054.81;4535721;28;20041;-59
2023/04/11 08:08:33;;;;;;;1.02;0.60;;;;;;;21.45;32.57;100072.09;4532230;28;20037;-58
2023/04/11 08:10:43;;;;;;;1.23;0.70;;;;;;;21.43;32.61;100066.75;4532376;28;20588;-58
2023/04/11 08:12:55;;;;;;;1.10;0.70;;;;;;;21.42;32.13;100073.69;4533651;28;20187;-58
2023/04/11 08:15:06;;;;;;;1.05;0.60;;;;;;;21.31;32.10;100055.44;4523793;28;20623;-59
2023/04/11 08:17:16;;;;;;;1.13;0.70;;;;;;;21.41;32.29;100069.16;4532048;28;20179;-58
2023/04/11 08:19:26;;;;;;;0.98;0.60;;;;;;;21.47;32.27;100084.84;4533715;28;20037;-59
2023/04/11 08:21:37;;;;;;;1.38;0.60;;;;;;;21.49;31.94;100082.41;4530978;28;20025;-59
2023/04/11 08:23:47;;;;;;;0.95;0.60;;;;;;;21.44;31.58;100077.00;4531508;28;20041;-59
2023/04/11 08:25:58;;;;;;;1.48;0.60;;;;;;;21.49;31.85;100073.81;4533461;28;20076;-59
2023/04/11 08:28:10;;;;;;;0.88;0.70;;;;;;;21.49;31.70;100075.84;4531598;28;20047;-60
2023/04/11 08:30:20;;;;;;;1.52;0.60;;;;;;;21.52;31.48;100069.31;4530608;28;20068;-60
2023/04/11 08:32:31;;;;;;;1.70;0.70;;;;;;;21.52;31.34;100078.78;4530538;28;20148;-60
2023/04/11 08:34:41;;;;;;;1.02;0.60;;;;;;;21.49;31.39;100065.19;4533845;28;20076;-59
2023/04/11 08:36:52;;;;;;;0.77;0.50;;;;;;;21.53;31.17;100074.66;4520596;28;20136;-60
2023/04/11 08:39:02;;;;;;;1.08;0.40;;;;;;;21.52;31.06;100078.78;4532845;28;20518;-60
2023/04/11 08:41:13;;;;;;;0.50;0.50;;;;;;;21.38;30.50;100052.72;4533859;28;20051;-60
2023/04/11 08:43:24;;;;;;;1.90;0.60;;;;;;;21.53;30.50;100088.22;4530706;28;20037;-60
2023/04/11 08:45:34;;;;;;;1.05;0.38;;;;;;;21.53;31.14;100074.66;4531867;28;20736;-60
2023/04/11 08:47:45;;;;;;;0.70;0.40;;;;;;;21.52;30.53;100078.78;4534266;28;20130;-59
2023/04/11 08:49:55;;;;;;;1.38;0.47;;;;;;;21.55;30.39;100095.22;4532269;28;20055;-59
2023/04/11 08:52:06;;;;;;;0.77;0.40;;;;;;;21.51;30.19;100079.16;4531240;28;20049;-59
2023/04/11 08:54:16;;;;;;;0.85;0.40;;;;;;;21.56;30.22;100099.78;4530881;28;20033;-60
2023/04/11 08:56:27;;;;;;;0.50;0.30;;;;;;;21.54;29.29;100093.56;4531988;28;20032;-60
2023/04/11 08:58:37;;;;;;;0.93;0.40;;;;;;;21.56;28.80;100105.53;4533843;28;20042;-59
2023/04/11 09:00:48;;;;;;;0.73;0.30;;;;;;;21.54;29.05;100096.44;4530922;28;20087;-59
2023/04/11 09:03:06;;;;;;;0.95;0.40;;;;;;;21.54;28.24;100116.56;4534098;28;20036;-60
2023/04/11 09:05:24;;;;;;;0.75;0.43;;;;;;;21.58;27.99;100108.81;4530648;28;20040;-61
2023/04/11 09:07:48;;;;;;;1.45;0.40;;;;;;;21.58;27.99;100117.44;4532646;28;20041;-60
2023/04/11 09:10:17;;;;;;;0.75;0.40;;;;;;;21.48;28.49;100095.13;4529421;28;20108;-59
2023/04/11 09:12:29;;;;;;;0.57;0.40;;;;;;;21.57;28.49;100115.78;4529906;28;20046;-60
2023/04/11 09:14:40;;;;;;;0.52;0.30;;;;;;;21.58;28.31;100117.44;4533588;28;20049;-59
2023/04/11 09:17:00;;;;;;;0.40;0.25;;;;;;;21.56;28.30;100122.75;4531022;28;20115;-60
2023/04/11 09:19:22;;;;;;;0.85;0.30;;;;;;;21.58;28.15;100120.28;4514741;28;20730;-59
2023/04/11 09:21:47;;;;;;;0.73;0.40;;;;;;;21.57;27.67;100121.53;4520455;28;20354;-59
2023/04/11 09:24:28;;;;;;;0.68;0.30;;;;;;;21.60;28.02;100117.03;4514983;28;20121;-58
2023/04/11 09:26:39;;;;;;;0.75;0.40;;;;;;;21.56;28.53;100111.25;4528875;28;20037;-58
2023/04/11 09:28:52;;;;;;;0.90;0.50;;;;;;;21.57;28.96;100115.78;4530108;28;20482;-58
2023/04/11 09:31:02;;;;;;;0.73;0.40;;;;;;;21.53;28.93;100112.00;4532409;28;20088;-58
2023/04/11 09:33:21;;;;;;;1.65;0.50;;;;;;;21.58;29.17;100117.44;4531094;28;20048;-58
2023/04/11 09:35:32;;;;;;;0.95;0.40;;;;;;;21.57;29.23;100114.94;4507986;28;20052;-59
2023/04/11 09:37:55;;;;;;;1.05;0.43;;;;;;;21.53;29.17;100106.25;4533161;28;20045;-58
2023/04/11 09:40:06;;;;;;;1.23;0.40;;;;;;;21.57;28.81;100104.28;4533003;28;20033;-58
2023/04/11 09:42:24;;;;;;;0.38;0.38;;;;;;;21.58;29.13;100100.19;4531011;28;20041;-58
2023/04/11 09:44:36;;;;;;;0.70;0.40;;;;;;;21.59;29.54;100093.25;4530692;28;20040;-59
2023/04/11 09:46:58;;;;;;;0.80;0.40;;;;;;;21.56;29.04;100102.66;4529925;28;20128;-58
2023/04/11 09:49:08;;;;;;;1.23;0.50;;;;;;;21.60;29.58;100114.16;4531293;28;20041;-59
2023/04/11 09:51:20;;;;;;;0.63;0.40;;;;;;;21.58;29.64;100111.69;4531644;28;20033;-59
2023/04/11 09:53:33;;;;;;;0.85;0.40;;;;;;;21.48;29.22;100103.75;4517134;28;20538;-59
2023/04/11 09:55:43;;;;;;;0.60;0.30;;;;;;;21.60;28.50;100134.28;4531789;28;20590;-59
2023/04/11 09:57:54;;;;;;;1.10;0.60;;;;;;;21.54;28.88;100139.53;4516598;28;20036;-58
2023/04/11 10:00:15;;;;;;;1.42;0.60;;;;;;;21.57;29.34;100155.97;4532652;28;20033;-58
2023/04/11 10:02:27;;;;;;;0.93;0.55;;;;;;;21.59;29.38;100179.41;4532446;28;20151;-58
2023/04/11 10:04:39;;;;;;;1.67;0.60;;;;;;;21.58;29.72;100169.13;4521462;28;20025;-58
2023/04/11 10:07:07;;;;;;;0.95;0.50;;;;;;;21.58;30.61;100171.19;4519121;28;20034;-59
2023/04/11 10:09:19;;;;;;;0.40;0.32;;;;;;;21.52;30.73;100173.53;4531022;28;20042;-58
2023/04/11 10:11:29;;;;;;;0.35;0.30;;;;;;;21.57;31.20;100201.94;4528113;28;20136;-58
2023/04/11 10:13:41;;;;;;;0.20;0.20;;;;;;;21.60;30.69;100206.91;4528064;28;20041;-58
2023/04/11 10:16:08;;;;;;;0.30;0.30;;;;;;;21.57;31.16;100222.03;4527262;28;20035;-58
2023/04/11 10:18:19;;;;;;;0.55;0.20;;;;;;;21.55;30.83;100235.94;4519740;28;20041;-58
2023/04/11 10:20:39;;;;;;;0.38;0.20;;;;;;;21.60;30.89;100217.56;4529105;28;20033;-58